createdAt,value
2022-12-05T00:01:23.356Z,30.77
2022-12-05T00:03:51.587Z,29.83
2022-12-05T00:06:18.969Z,31.58
2022-12-05T00:08:45.952Z,28.90
2022-12-05T00:11:14.659Z,31.42
2022-12-05T00:13:42.508Z,30.20
2022-12-05T00:16:11.449Z,31.60
2022-12-05T00:18:38.541Z,30.75
2022-12-05T00:21:05.731Z,30.48
2022-12-05T00:23:32.216Z,31.70
2022-12-05T00:26:03.439Z,33.92
2022-12-05T00:28:31.930Z,28.55
2022-12-05T00:31:02.541Z,30.88
2022-12-05T00:33:29.087Z,29.13
2022-12-05T00:35:55.387Z,30.38
2022-12-05T00:38:21.698Z,29.98
2022-12-05T00:40:48.023Z,30.33
2022-12-05T00:43:14.406Z,31.20
2022-12-05T00:45:40.867Z,28.60
2022-12-05T00:48:07.286Z,28.75
2022-12-05T00:50:33.705Z,29.42
2022-12-05T00:53:00.096Z,28.77
2022-12-05T00:55:26.388Z,28.13
2022-12-05T00:57:52.712Z,28.75
2022-12-05T01:00:19.420Z,29.90
2022-12-05T01:02:45.847Z,27.17
2022-12-05T01:05:12.875Z,29.40
2022-12-05T01:07:39.342Z,27.63
2022-12-05T01:10:06.486Z,27.95
2022-12-05T01:12:33.341Z,27.35
2022-12-05T01:14:59.689Z,26.45
2022-12-05T01:17:26.194Z,27.20
2022-12-05T01:19:52.722Z,27.67
2022-12-05T01:22:19.087Z,27.50
2022-12-05T01:24:45.426Z,27.85
2022-12-05T01:27:11.835Z,27.67
2022-12-05T01:29:38.247Z,26.08
2022-12-05T01:32:04.910Z,25.90
2022-12-05T01:34:31.370Z,24.50
2022-12-05T01:36:57.752Z,25.63
2022-12-05T01:39:24.199Z,25.58
2022-12-05T01:41:50.819Z,26.52
2022-12-05T01:44:17.136Z,26.33
2022-12-05T01:46:44.596Z,25.92
2022-12-05T01:49:15.227Z,25.90
2022-12-05T01:51:46.687Z,25.52
2022-12-05T01:54:14.873Z,27.42
2022-12-05T01:56:44.412Z,26.65
2022-12-05T01:59:12.229Z,25.98
2022-12-05T02:01:39.362Z,28.85
2022-12-05T02:04:06.664Z,27.58
2022-12-05T02:06:33.855Z,27.20
2022-12-05T02:09:00.482Z,28.08
2022-12-05T02:11:29.584Z,25.95
2022-12-05T02:14:38.819Z,26.88
2022-12-05T02:17:42.407Z,26.10
2022-12-05T02:20:38.576Z,24.95
2022-12-05T02:23:29.385Z,26.65
2022-12-05T02:26:16.850Z,25.38
2022-12-05T02:29:05.071Z,26.45
2022-12-05T02:31:51.412Z,26.42
2022-12-05T02:34:31.672Z,27.08
2022-12-05T02:37:23.063Z,26.95
2022-12-05T02:40:00.853Z,27.58
2022-12-05T02:42:42.873Z,28.45
2022-12-05T02:45:12.165Z,28.75
2022-12-05T02:47:44.820Z,27.58
2022-12-05T02:50:15.505Z,29.25
2022-12-05T02:52:44.913Z,27.50
2022-12-05T02:55:14.439Z,29.00
2022-12-05T02:57:46.755Z,28.15
2022-12-05T03:00:13.664Z,27.50
2022-12-05T03:02:41.213Z,27.23
2022-12-05T03:05:25.853Z,27.40
2022-12-05T03:07:54.907Z,27.33
2022-12-05T03:10:23.825Z,28.75
2022-12-05T03:12:58.046Z,28.52
2022-12-05T03:18:10.363Z,25.73
2022-12-05T03:21:21.651Z,27.40
2022-12-05T03:23:53.878Z,27.20
2022-12-05T03:26:34.885Z,28.75
2022-12-05T03:29:09.975Z,29.90
2022-12-05T03:31:52.769Z,29.58
2022-12-05T03:34:32.258Z,29.63
2022-12-05T03:37:05.282Z,31.15
2022-12-05T03:39:35.930Z,28.55
2022-12-05T03:42:11.100Z,31.33
2022-12-05T03:44:45.093Z,32.10
2022-12-05T03:47:21.516Z,32.38
2022-12-05T03:49:52.608Z,32.10
2022-12-05T03:52:27.225Z,33.70
2022-12-05T03:54:57.403Z,34.60
2022-12-05T03:57:32.996Z,35.70
2022-12-05T04:00:04.170Z,35.20
2022-12-05T04:02:45.093Z,37.20
2022-12-05T04:05:26.669Z,37.63
2022-12-05T04:08:01.437Z,39.25
2022-12-05T04:10:48.662Z,40.58
2022-12-05T04:13:44.077Z,39.47
2022-12-05T04:16:35.609Z,41.97
2022-12-05T04:19:09.205Z,39.22
2022-12-05T04:21:43.080Z,43.42
2022-12-05T04:24:34.081Z,43.35
2022-12-05T04:27:15.503Z,41.58
2022-12-05T04:30:02.641Z,44.22
2022-12-05T04:32:38.516Z,45.90
2022-12-05T04:35:13.985Z,46.85
2022-12-05T04:37:44.435Z,45.83
2022-12-05T04:40:28.274Z,46.72
2022-12-05T04:42:56.487Z,48.90
2022-12-05T04:45:25.671Z,45.35
2022-12-05T04:47:57.202Z,44.17
2022-12-05T04:50:25.944Z,46.38
2022-12-05T04:52:58.024Z,45.97
2022-12-05T04:55:26.669Z,48.38
2022-12-05T04:58:01.765Z,47.97
2022-12-05T05:00:30.646Z,47.25
2022-12-05T05:03:23.231Z,47.70
2022-12-05T05:05:53.044Z,46.70
2022-12-05T05:08:22.937Z,46.78
2022-12-05T05:11:03.914Z,49.25
2022-12-05T05:13:30.310Z,48.05
2022-12-05T05:15:56.691Z,47.97
2022-12-05T05:18:23.181Z,48.80
2022-12-05T05:20:49.640Z,48.75
2022-12-05T05:23:16.087Z,48.30
2022-12-05T05:25:42.441Z,47.83
2022-12-05T05:28:08.788Z,49.75
2022-12-05T05:30:35.168Z,48.60
2022-12-05T05:33:01.609Z,50.20
2022-12-05T05:35:28.019Z,47.85
2022-12-05T05:37:54.373Z,47.55
2022-12-05T05:40:20.704Z,47.63
2022-12-05T05:42:49.574Z,50.05
2022-12-05T05:45:16.668Z,48.08
2022-12-05T05:47:43.183Z,48.47
2022-12-05T05:50:13.872Z,46.60
2022-12-05T05:52:42.797Z,48.23
2022-12-05T05:55:09.889Z,47.45
2022-12-05T05:57:36.708Z,48.90
2022-12-05T06:00:06.508Z,48.75
2022-12-05T06:02:34.918Z,50.42
2022-12-05T06:05:01.901Z,49.13
2022-12-05T06:07:28.418Z,50.88
2022-12-05T06:09:54.787Z,49.97
2022-12-05T06:12:21.273Z,49.80
2022-12-05T06:14:49.189Z,50.58
2022-12-05T06:17:16.453Z,51.53
2022-12-05T06:19:42.881Z,53.38
2022-12-05T06:22:09.572Z,51.55
2022-12-05T06:24:35.914Z,52.58
2022-12-05T06:27:02.254Z,52.22
2022-12-05T06:29:33.518Z,52.25
2022-12-05T06:32:00.448Z,53.13
2022-12-05T06:34:26.913Z,52.42
2022-12-05T06:36:53.225Z,50.63
2022-12-05T06:39:19.608Z,54.40
2022-12-05T06:41:46.321Z,50.72
2022-12-05T06:44:12.689Z,52.25
2022-12-05T06:46:39.051Z,52.60
2022-12-05T06:49:05.401Z,53.67
2022-12-05T06:51:31.710Z,52.53
2022-12-05T06:53:58.232Z,53.70
2022-12-05T06:56:24.541Z,54.40
2022-12-05T06:58:52.364Z,52.90
2022-12-05T07:01:40.680Z,54.95
2022-12-05T07:04:12.556Z,49.92
2022-12-05T07:06:40.658Z,50.72
2022-12-05T07:09:07.605Z,49.65
2022-12-05T07:11:34.959Z,47.03
2022-12-05T07:14:10.168Z,47.40
2022-12-05T07:16:41.182Z,44.58
2022-12-05T07:19:07.647Z,46.42
2022-12-05T07:21:33.961Z,44.10
2022-12-05T07:24:00.265Z,45.25
2022-12-05T07:26:26.679Z,48.35
2022-12-05T07:28:57.275Z,46.88
2022-12-05T07:31:25.944Z,46.25
2022-12-05T07:33:52.370Z,46.25
2022-12-05T07:36:22.337Z,46.78
2022-12-05T07:38:48.740Z,46.78
2022-12-05T07:41:21.158Z,49.42
2022-12-05T07:43:47.563Z,47.95
2022-12-05T07:46:14.465Z,50.13
2022-12-05T07:48:40.933Z,46.90
2022-12-05T07:51:09.456Z,44.55
2022-12-05T07:53:36.621Z,43.80
2022-12-05T07:56:05.695Z,43.90
2022-12-05T07:58:33.144Z,44.22
2022-12-05T08:01:11.588Z,43.97
2022-12-05T08:03:41.636Z,43.47
2022-12-05T08:06:10.674Z,44.90
2022-12-05T08:08:37.210Z,47.55
2022-12-05T08:11:23.703Z,48.55
2022-12-05T08:13:50.353Z,49.67
2022-12-05T08:16:19.409Z,49.90
2022-12-05T08:18:46.814Z,53.47
2022-12-05T08:21:16.081Z,53.20
2022-12-05T08:23:45.824Z,56.05
2022-12-05T08:26:15.202Z,54.78
2022-12-05T08:28:42.949Z,55.60
2022-12-05T08:31:17.513Z,55.28
2022-12-05T08:33:44.391Z,52.95
2022-12-05T08:36:18.252Z,52.13
2022-12-05T08:38:45.556Z,53.58
2022-12-05T08:41:15.009Z,53.72
2022-12-05T08:43:41.724Z,51.22
2022-12-05T08:46:08.984Z,52.22
2022-12-05T08:48:36.434Z,52.95
2022-12-05T08:51:08.125Z,53.60
2022-12-05T08:53:40.925Z,54.13
2022-12-05T08:56:10.987Z,50.70
2022-12-05T08:58:37.803Z,57.70
2022-12-05T09:01:15.478Z,55.88
2022-12-05T09:03:47.634Z,54.88
2022-12-05T09:06:20.449Z,51.80
2022-12-05T09:08:47.443Z,57.63
2022-12-05T09:11:15.330Z,57.35
2022-12-05T09:13:42.631Z,54.55
2022-12-05T09:16:16.042Z,55.85
2022-12-05T09:18:43.552Z,47.53
2022-12-05T09:21:16.583Z,55.72
2022-12-05T09:23:43.419Z,59.90
2022-12-05T09:26:12.821Z,57.58
2022-12-05T09:28:39.891Z,58.75
2022-12-05T09:31:13.102Z,57.90
2022-12-05T09:33:39.806Z,58.03
2022-12-05T09:36:09.409Z,57.97
2022-12-05T09:38:35.789Z,56.55
2022-12-05T09:41:17.675Z,55.38
2022-12-05T09:43:58.666Z,56.72
2022-12-05T09:46:43.880Z,54.55
2022-12-05T09:49:12.868Z,57.20
2022-12-05T09:51:44.702Z,53.10
2022-12-05T09:54:13.213Z,58.28
2022-12-05T09:56:43.343Z,54.38
2022-12-05T09:59:20.423Z,53.03
2022-12-05T10:02:07.337Z,55.28
2022-12-05T10:05:00.375Z,58.92
2022-12-05T10:07:38.240Z,55.55
2022-12-05T10:10:20.175Z,57.63
2022-12-05T10:13:17.601Z,57.15
2022-12-05T10:15:53.024Z,60.92
2022-12-05T10:18:31.905Z,60.45
2022-12-05T10:21:15.421Z,63.95
2022-12-05T10:23:58.270Z,64.03
2022-12-05T10:26:30.708Z,64.80
2022-12-05T10:29:02.578Z,63.33
2022-12-05T10:31:36.126Z,64.15
2022-12-05T10:34:12.139Z,61.92
2022-12-05T10:36:38.497Z,63.60
2022-12-05T10:39:11.128Z,57.75
2022-12-05T10:41:38.071Z,60.88
2022-12-05T10:44:05.728Z,64.40
2022-12-05T10:46:32.198Z,61.65
2022-12-05T10:48:59.416Z,59.88
2022-12-05T10:51:34.011Z,61.28
2022-12-05T10:54:22.656Z,60.38
2022-12-05T10:56:53.766Z,63.40
2022-12-05T10:59:25.574Z,58.28
2022-12-05T11:01:55.165Z,59.53
2022-12-05T11:04:30.494Z,58.55
2022-12-05T11:07:00.545Z,60.30
2022-12-05T11:09:32.660Z,55.45
2022-12-05T11:12:05.548Z,56.17
2022-12-05T11:14:34.325Z,55.83
2022-12-05T11:17:02.249Z,56.25
2022-12-05T11:19:32.602Z,54.40
2022-12-05T11:21:59.534Z,54.65
2022-12-05T11:24:25.810Z,53.15
2022-12-05T11:26:52.755Z,54.45
2022-12-05T11:29:58.127Z,51.03
2022-12-05T11:32:27.705Z,49.60
2022-12-05T11:35:03.211Z,52.25
2022-12-05T11:37:43.195Z,49.25
2022-12-05T11:40:16.308Z,51.92
2022-12-05T11:43:29.892Z,49.83
2022-12-05T11:46:11.961Z,50.15
2022-12-05T11:49:08.299Z,53.63
2022-12-05T11:51:54.817Z,54.33
2022-12-05T11:55:05.110Z,52.70
2022-12-05T11:57:52.584Z,50.90
2022-12-05T12:00:22.381Z,54.40
2022-12-05T12:03:33.804Z,54.08
2022-12-05T12:06:21.055Z,55.53
2022-12-05T12:09:10.458Z,55.08
2022-12-05T12:11:49.984Z,53.33
2022-12-05T12:14:25.376Z,56.63
2022-12-05T12:17:20.659Z,50.72
2022-12-05T12:19:55.399Z,51.53
2022-12-05T12:22:31.932Z,56.45
2022-12-05T12:25:16.487Z,51.17
2022-12-05T12:28:05.227Z,49.13
2022-12-05T12:30:57.470Z,58.35
2022-12-05T12:34:21.973Z,53.95
2022-12-05T12:37:04.807Z,49.75
2022-12-05T12:39:49.611Z,49.78
2022-12-05T12:42:58.712Z,52.85
2022-12-05T12:45:34.301Z,49.97
2022-12-05T12:48:16.083Z,50.78
2022-12-05T12:50:45.246Z,51.17
2022-12-05T12:53:33.695Z,51.60
2022-12-05T12:56:21.392Z,48.50
2022-12-05T12:58:56.961Z,47.40
2022-12-05T13:01:54.007Z,50.28
2022-12-05T13:04:28.863Z,52.13
2022-12-05T13:07:04.888Z,51.90
2022-12-05T13:09:47.321Z,54.83
2022-12-05T13:12:23.137Z,53.45
2022-12-05T13:14:54.287Z,50.88
2022-12-05T13:17:23.365Z,55.30
2022-12-05T13:19:52.320Z,53.25
2022-12-05T13:22:22.334Z,55.67
2022-12-05T13:24:53.026Z,56.67
2022-12-05T13:30:57.676Z,55.30
2022-12-05T13:33:32.737Z,55.40
2022-12-05T13:36:27.229Z,56.33
2022-12-05T13:39:21.757Z,52.50
2022-12-05T13:42:11.000Z,52.25
2022-12-05T13:44:45.131Z,53.50
2022-12-05T13:47:37.703Z,52.58
2022-12-05T13:50:14.252Z,50.38
2022-12-05T13:52:52.090Z,53.67
2022-12-05T13:55:36.549Z,50.40
2022-12-05T13:58:37.666Z,50.78
2022-12-05T14:01:37.010Z,53.83
2022-12-05T14:04:23.247Z,55.78
2022-12-05T14:06:52.633Z,54.13
2022-12-05T14:09:19.055Z,55.95
2022-12-05T14:12:12.152Z,55.20
2022-12-05T14:15:03.946Z,52.95
2022-12-05T14:17:44.145Z,48.55
2022-12-05T14:20:21.475Z,49.92
2022-12-05T14:22:54.716Z,48.75
2022-12-05T14:25:35.727Z,52.05
2022-12-05T14:28:18.724Z,48.58
2022-12-05T14:31:25.848Z,50.35
2022-12-05T14:34:36.885Z,50.20
2022-12-05T14:37:03.321Z,50.33
2022-12-05T14:39:44.007Z,51.30
2022-12-05T14:42:22.948Z,52.20
2022-12-05T14:44:51.893Z,52.53
2022-12-05T14:47:25.332Z,48.72
2022-12-05T14:50:04.280Z,50.17
2022-12-05T14:52:31.984Z,49.72
2022-12-05T14:55:03.986Z,51.22
2022-12-05T14:57:34.437Z,48.72
2022-12-05T15:00:06.548Z,51.35
2022-12-05T15:02:39.325Z,51.50
2022-12-05T15:05:22.336Z,52.65
2022-12-05T15:07:50.918Z,50.38
2022-12-05T15:10:24.945Z,54.92
2022-12-05T15:12:58.227Z,51.25
2022-12-05T15:15:41.551Z,51.33
2022-12-05T15:18:28.686Z,50.10
2022-12-05T15:21:16.262Z,50.35
2022-12-05T15:23:42.601Z,53.80
2022-12-05T15:29:12.173Z,58.75
2022-12-05T15:31:58.460Z,59.45
2022-12-05T15:34:34.937Z,64.45
2022-12-05T15:37:29.103Z,60.30
2022-12-05T15:40:09.216Z,59.47
2022-12-05T15:42:43.645Z,60.58
2022-12-05T15:45:15.924Z,61.50
2022-12-05T15:47:50.764Z,62.97
2022-12-05T15:50:22.800Z,66.28
2022-12-05T15:53:00.020Z,64.38
2022-12-05T15:55:26.303Z,69.32
2022-12-05T15:58:09.652Z,64.43
2022-12-05T16:00:43.649Z,62.35
2022-12-05T16:03:19.984Z,60.08
2022-12-05T16:05:49.087Z,63.95
2022-12-05T16:08:15.967Z,65.60
2022-12-05T16:10:43.192Z,64.53
2022-12-05T16:13:15.501Z,63.63
2022-12-05T16:15:56.584Z,71.97
2022-12-05T16:18:31.364Z,69.68
2022-12-05T16:20:58.296Z,66.93
2022-12-05T16:23:37.302Z,70.72
2022-12-05T16:26:12.478Z,66.32
2022-12-05T16:28:39.227Z,67.82
2022-12-05T16:31:06.643Z,70.40
2022-12-05T16:33:33.285Z,70.68
2022-12-05T16:36:12.726Z,70.72
2022-12-05T16:38:40.959Z,70.53
2022-12-05T16:41:09.112Z,72.47
2022-12-05T16:43:35.449Z,65.90
2022-12-05T16:46:36.766Z,74.70
2022-12-05T16:49:32.013Z,64.18
2022-12-05T16:52:07.492Z,64.65
2022-12-05T16:54:33.953Z,67.68
2022-12-05T16:57:01.532Z,70.35
2022-12-05T16:59:33.919Z,74.47
2022-12-05T17:02:02.193Z,70.10
2022-12-05T17:04:31.224Z,70.47
2022-12-05T17:06:57.594Z,71.30
2022-12-05T17:09:24.298Z,68.90
2022-12-05T17:11:53.815Z,69.65
2022-12-05T17:14:20.382Z,65.97
2022-12-05T17:16:46.965Z,71.18
2022-12-05T17:19:14.537Z,68.30
2022-12-05T17:21:42.198Z,67.30
2022-12-05T17:24:18.937Z,67.88
2022-12-05T17:26:47.253Z,67.32
2022-12-05T17:29:13.608Z,64.43
2022-12-05T17:31:40.138Z,67.30
2022-12-05T17:34:15.617Z,69.75
2022-12-05T17:36:42.059Z,65.45
2022-12-05T17:39:09.166Z,67.07
2022-12-05T17:41:36.079Z,66.22
2022-12-05T17:44:04.010Z,69.57
2022-12-05T17:46:30.625Z,63.55
2022-12-05T17:48:56.994Z,72.03
2022-12-05T17:51:24.020Z,71.03
2022-12-05T17:53:52.823Z,65.40
2022-12-05T17:56:19.421Z,71.50
2022-12-05T17:58:46.096Z,67.25
2022-12-05T18:01:19.251Z,68.43
2022-12-05T18:03:49.315Z,73.93
2022-12-05T18:06:16.884Z,66.50
2022-12-05T18:08:49.704Z,70.05
2022-12-05T18:11:16.559Z,65.47
2022-12-05T18:13:45.181Z,69.20
2022-12-05T18:16:12.457Z,68.55
2022-12-05T18:18:39.456Z,72.28
2022-12-05T18:21:12.027Z,69.03
2022-12-05T18:23:40.354Z,70.18
2022-12-05T18:26:09.371Z,69.63
2022-12-05T18:28:37.588Z,67.22
2022-12-05T18:31:11.908Z,66.38
2022-12-05T18:33:41.160Z,69.88
2022-12-05T18:36:10.138Z,69.78
2022-12-05T18:38:37.178Z,74.45
2022-12-05T18:41:06.438Z,68.75
2022-12-05T18:43:33.111Z,66.97
2022-12-05T18:46:01.069Z,68.95
2022-12-05T18:48:39.318Z,74.72
2022-12-05T18:51:11.612Z,71.18
2022-12-05T18:53:38.718Z,68.43
2022-12-05T18:56:22.162Z,69.65
2022-12-05T19:01:28.439Z,67.25
2022-12-05T19:03:57.079Z,72.57
2022-12-05T19:06:29.378Z,75.75
2022-12-05T19:08:58.394Z,68.40
2022-12-05T19:11:26.476Z,72.05
2022-12-05T19:14:01.220Z,71.05
2022-12-05T19:16:29.073Z,69.70
2022-12-05T19:18:58.371Z,69.55
2022-12-05T19:21:26.524Z,72.10
2022-12-05T19:23:53.610Z,70.57
2022-12-05T19:26:20.785Z,67.63
2022-12-05T19:28:47.643Z,76.10
2022-12-05T19:31:17.228Z,72.75
2022-12-05T19:33:45.794Z,64.90
2022-12-05T19:36:15.371Z,70.55
2022-12-05T19:38:43.642Z,70.13
2022-12-05T19:41:12.547Z,71.25
2022-12-05T19:43:40.780Z,75.53
2022-12-05T19:46:10.960Z,72.55
2022-12-05T19:48:37.540Z,68.50
2022-12-05T19:51:04.268Z,72.85
2022-12-05T19:53:33.614Z,71.35
2022-12-05T19:56:01.764Z,71.32
2022-12-05T19:58:30.730Z,67.00
2022-12-05T20:01:11.092Z,67.30
2022-12-05T20:03:37.870Z,65.47
2022-12-05T20:06:07.067Z,66.93
2022-12-05T20:08:35.318Z,67.13
2022-12-05T20:11:11.285Z,68.13
2022-12-05T20:13:46.586Z,65.38
2022-12-05T20:16:15.765Z,64.18
2022-12-05T20:18:43.935Z,65.55
2022-12-05T20:21:12.728Z,65.38
2022-12-05T20:23:39.376Z,67.97
2022-12-05T20:26:11.975Z,70.07
2022-12-05T20:28:39.044Z,71.00
2022-12-05T20:31:07.056Z,70.65
2022-12-05T20:33:34.139Z,66.05
2022-12-05T20:36:05.942Z,62.47
2022-12-05T20:38:32.474Z,68.45
2022-12-05T20:41:07.537Z,66.95
2022-12-05T20:43:34.677Z,66.13
2022-12-05T20:46:10.288Z,71.65
2022-12-05T20:48:36.726Z,65.05
2022-12-05T20:51:08.223Z,67.00
2022-12-05T20:53:36.986Z,65.90
2022-12-05T20:56:08.727Z,63.72
2022-12-05T20:58:36.097Z,65.38
2022-12-05T21:01:06.227Z,60.97
2022-12-05T21:03:32.849Z,65.07
2022-12-05T21:05:59.732Z,67.25
2022-12-05T21:08:26.116Z,64.07
2022-12-05T21:10:52.910Z,63.53
2022-12-05T21:13:19.643Z,64.63
2022-12-05T21:15:46.143Z,65.22
2022-12-05T21:18:12.619Z,67.30
2022-12-05T21:20:42.122Z,61.95
2022-12-05T21:23:09.073Z,62.60
2022-12-05T21:25:35.416Z,64.25
2022-12-05T21:28:02.109Z,64.57
2022-12-05T21:30:28.470Z,63.80
2022-12-05T21:32:55.571Z,62.97
2022-12-05T21:35:21.961Z,59.58
2022-12-05T21:37:48.305Z,65.35
2022-12-05T21:40:14.646Z,65.30
2022-12-05T21:42:41.021Z,67.82
2022-12-05T21:45:07.838Z,66.88
2022-12-05T21:47:34.235Z,66.55
2022-12-05T21:50:00.909Z,67.38
2022-12-05T21:52:27.434Z,66.63
2022-12-05T21:54:53.812Z,65.95
2022-12-05T21:57:20.234Z,70.35
2022-12-05T21:59:46.637Z,65.05
2022-12-05T22:02:12.964Z,66.90
2022-12-05T22:04:39.264Z,65.45
2022-12-05T22:07:05.605Z,66.28
2022-12-05T22:09:31.924Z,65.97
2022-12-05T22:11:58.371Z,65.15
2022-12-05T22:14:24.783Z,69.03
2022-12-05T22:16:51.205Z,65.40
2022-12-05T22:19:17.540Z,67.28
2022-12-05T22:21:43.901Z,66.20
2022-12-05T22:24:10.278Z,65.75
2022-12-05T22:26:36.619Z,66.93
2022-12-05T22:29:02.933Z,65.55
2022-12-05T22:31:29.369Z,66.90
2022-12-05T22:33:55.730Z,66.93
2022-12-05T22:36:24.084Z,70.40
2022-12-05T22:38:50.616Z,68.32
2022-12-05T22:41:22.688Z,69.93
2022-12-05T22:43:52.859Z,71.55
2022-12-05T22:46:20.537Z,70.10
2022-12-05T22:48:48.228Z,70.50
2022-12-05T22:51:15.397Z,68.20
2022-12-05T22:53:42.329Z,72.65
2022-12-05T22:56:11.130Z,74.57
2022-12-05T22:58:38.593Z,70.30
2022-12-05T23:01:12.470Z,73.22
2022-12-05T23:03:39.605Z,70.00
2022-12-05T23:06:11.478Z,69.30
2022-12-05T23:08:39.182Z,68.30
2022-12-05T23:11:06.496Z,73.82
2022-12-05T23:13:34.886Z,72.60
2022-12-05T23:16:11.001Z,71.40
2022-12-05T23:18:47.271Z,71.35
2022-12-05T23:21:17.994Z,70.38
2022-12-05T23:23:44.935Z,72.68
2022-12-05T23:26:11.979Z,72.30
2022-12-05T23:28:38.657Z,72.05
2022-12-05T23:31:06.568Z,69.65
2022-12-05T23:33:33.344Z,75.32
2022-12-05T23:35:59.737Z,72.40
2022-12-05T23:38:26.214Z,72.47
2022-12-05T23:41:00.779Z,70.88
2022-12-05T23:43:28.796Z,72.22
2022-12-05T23:45:55.301Z,75.50
2022-12-05T23:48:21.864Z,74.75
2022-12-05T23:50:59.915Z,73.20
2022-12-05T23:53:27.403Z,74.05
2022-12-05T23:55:53.852Z,76.15
2022-12-05T23:58:20.402Z,74.25
